Time;durP1;ratioP1;P1;durP2;ratioP2;P2;SDS_P1;SDS_P2;PMS_P1;PMS_P2;Temp;Humidity;BMP_temperature;BMP_pressure;BME280_temperature;BME280_humidity;BME280_pressure;Samples;Min_cycle;Max_cycle;Signal;HPM_P1;HPM_P2
2022/12/22 03:25:52;;;;;;;0.70;0.40;;;11.40;99.90;;;;;;5074843;28;20515;-78
2022/12/22 03:28:20;;;;;;;1.30;0.43;;;11.40;99.90;;;;;;5055504;28;20485;-77
2022/12/22 03:31:00;;;;;;;1.63;0.50;;;11.50;99.90;;;;;;5074399;28;20468;-76
2022/12/22 03:33:27;;;;;;;1.20;0.50;;;11.30;99.90;;;;;;5074143;28;20434;-77
2022/12/22 03:35:52;;;;;;;0.80;0.53;;;11.30;99.90;;;;;;5073576;28;20516;-77
2022/12/22 03:38:18;;;;;;;1.03;0.50;;;11.30;99.90;;;;;;5073812;28;20418;-77
2022/12/22 03:40:43;;;;;;;0.70;0.40;;;11.30;99.90;;;;;;5073605;28;20212;-77
2022/12/22 03:48:39;;;;;;;1.40;0.53;;;11.10;99.90;;;;;;5072970;28;20517;-77
2022/12/22 03:51:05;;;;;;;1.03;0.60;;;10.90;99.90;;;;;;5053707;28;20536;-75
2022/12/22 03:53:31;;;;;;;1.10;0.60;;;10.90;99.90;;;;;;5036630;28;20444;-76
2022/12/22 03:55:56;;;;;;;3.13;0.80;;;10.70;99.90;;;;;;5071243;28;20994;-77
2022/12/22 03:58:22;;;;;;;1.77;0.70;;;10.70;99.90;;;;;;5053334;28;20265;-76
2022/12/22 04:00:48;;;;;;;1.80;0.70;;;10.60;99.90;;;;;;5053715;28;20186;-77
2022/12/22 04:03:13;;;;;;;1.53;0.80;;;10.60;99.90;;;;;;5071105;28;20202;-76
2022/12/22 04:05:39;;;;;;;2.30;0.87;;;10.70;99.90;;;;;;5071538;28;20255;-77
2022/12/22 04:08:05;;;;;;;1.43;1.00;;;10.60;99.90;;;;;;5053447;28;20668;-77
2022/12/22 04:13:15;;;;;;;1.27;0.80;;;10.60;99.90;;;;;;5056278;28;20521;-79
2022/12/22 04:15:41;;;;;;;0.90;0.60;;;10.60;99.90;;;;;;5052965;28;20504;-78
2022/12/22 04:18:07;;;;;;;2.53;1.00;;;10.60;99.90;;;;;;5036570;28;20435;-80
2022/12/22 04:20:33;;;;;;;2.43;1.50;;;10.50;99.90;;;;;;5053451;28;20196;-77
2022/12/22 04:22:58;;;;;;;1.77;0.80;;;10.50;99.90;;;;;;5071538;28;20506;-77
2022/12/22 04:25:25;;;;;;;2.40;0.90;;;10.50;99.90;;;;;;5053667;28;20202;-77
2022/12/22 04:27:51;;;;;;;2.77;1.10;;;10.50;99.90;;;;;;5071348;28;20245;-77
2022/12/22 04:30:17;;;;;;;2.20;1.53;;;10.40;99.90;;;;;;5053457;28;20852;-77
2022/12/22 04:32:43;;;;;;;1.20;0.93;;;10.40;99.90;;;;;;5071972;28;20210;-78
2022/12/22 04:35:09;;;;;;;3.10;0.90;;;10.40;99.90;;;;;;5071106;28;20417;-77
2022/12/22 04:37:34;;;;;;;1.23;0.83;;;10.40;99.90;;;;;;5071477;28;20211;-77
2022/12/22 04:40:00;;;;;;;6.43;1.20;;;10.40;99.90;;;;;;5071187;28;20421;-78
2022/12/22 04:42:26;;;;;;;3.43;1.23;;;10.50;99.90;;;;;;5053093;28;20175;-78
2022/12/22 04:44:51;;;;;;;2.33;1.80;;;10.60;99.90;;;;;;5052870;28;20554;-78
2022/12/22 04:47:17;;;;;;;1.23;1.00;;;10.40;99.90;;;;;;5070974;28;20596;-77
2022/12/22 04:49:43;;;;;;;5.17;1.10;;;10.40;99.90;;;;;;5053069;28;20218;-77
2022/12/22 04:52:08;;;;;;;1.97;0.90;;;10.40;99.90;;;;;;5036162;28;20187;-79
2022/12/22 04:54:34;;;;;;;1.30;1.20;;;10.30;99.90;;;;;;5036576;28;20213;-78
2022/12/22 04:56:59;;;;;;;6.73;1.60;;;10.30;99.90;;;;;;5070931;28;20272;-78
2022/12/22 04:59:25;;;;;;;2.60;1.43;;;10.20;99.90;;;;;;5019943;28;20187;-76
2022/12/22 05:01:51;;;;;;;1.83;1.23;;;10.10;99.90;;;;;;5071302;28;20190;-77
2022/12/22 05:04:16;;;;;;;1.00;0.90;;;10.00;99.90;;;;;;5053194;28;20210;-77
2022/12/22 05:06:42;;;;;;;1.40;1.30;;;10.00;99.90;;;;;;5036518;28;20191;-78
2022/12/22 05:09:09;;;;;;;2.80;0.97;;;10.10;99.90;;;;;;5052962;28;20236;-78
2022/12/22 05:11:35;;;;;;;2.67;1.30;;;9.90;99.90;;;;;;5070532;28;20219;-78
2022/12/22 05:14:01;;;;;;;1.23;1.00;;;9.80;99.90;;;;;;5070611;28;20488;-78
2022/12/22 05:16:26;;;;;;;3.13;1.17;;;9.80;99.90;;;;;;5070745;28;20216;-77
2022/12/22 05:18:52;;;;;;;3.63;1.00;;;9.70;99.90;;;;;;5071023;28;20655;-77
2022/12/22 05:21:20;;;;;;;2.60;1.13;;;9.70;99.90;;;;;;5073074;28;20186;-78
2022/12/22 05:23:46;;;;;;;1.50;1.20;;;9.70;99.90;;;;;;5072381;28;20232;-77
2022/12/22 05:26:13;;;;;;;2.87;0.90;;;9.70;99.90;;;;;;5037828;28;20445;-78
2022/12/22 05:28:40;;;;;;;2.60;1.00;;;9.70;99.90;;;;;;5054189;28;20206;-78
2022/12/22 05:31:08;;;;;;;4.13;1.00;;;9.70;99.90;;;;;;5055285;28;20441;-78
2022/12/22 05:33:34;;;;;;;5.63;1.03;;;9.70;99.90;;;;;;5085315;28;20547;-78
2022/12/22 05:36:00;;;;;;;5.30;1.57;;;9.80;99.90;;;;;;5086808;28;20779;-78
2022/12/22 05:38:26;;;;;;;1.73;0.90;;;9.80;99.90;;;;;;5068572;28;20500;-78
2022/12/22 05:40:52;;;;;;;3.53;1.30;;;9.80;99.90;;;;;;5085846;28;20427;-77
2022/12/22 05:43:18;;;;;;;2.80;1.07;;;9.80;99.90;;;;;;5069978;28;20879;-78
2022/12/22 05:45:44;;;;;;;2.70;1.20;;;9.90;99.90;;;;;;5035675;28;20203;-77
2022/12/22 05:48:10;;;;;;;6.33;1.23;;;9.90;99.90;;;;;;5069921;28;20188;-78
2022/12/22 05:50:36;;;;;;;1.63;0.63;;;9.90;99.90;;;;;;5070016;28;20413;-78
2022/12/22 05:53:02;;;;;;;4.00;0.93;;;10.20;99.90;;;;;;5069826;28;20491;-78
2022/12/22 05:55:28;;;;;;;4.10;1.37;;;10.00;99.90;;;;;;5052062;28;20523;-78
2022/12/22 05:57:53;;;;;;;8.80;1.70;;;10.10;99.90;;;;;;5069629;28;20566;-78
2022/12/22 06:00:20;;;;;;;7.23;1.30;;;10.10;99.90;;;;;;5018097;28;20184;-78
2022/12/22 06:02:45;;;;;;;4.87;1.20;;;10.10;99.90;;;;;;5069078;28;20206;-78
2022/12/22 06:05:13;;;;;;;2.80;0.97;;;10.20;99.90;;;;;;5050780;28;20414;-77
2022/12/22 06:07:40;;;;;;;4.93;1.30;;;10.30;99.90;;;;;;5069195;28;20241;-77
2022/12/22 06:10:06;;;;;;;5.67;1.17;;;10.30;99.90;;;;;;5051081;28;20480;-78
2022/12/22 06:12:32;;;;;;;4.97;1.53;;;10.30;99.90;;;;;;5050605;28;20457;-77
2022/12/22 06:14:58;;;;;;;5.73;1.10;;;10.40;99.90;;;;;;5051413;28;20426;-77
2022/12/22 06:17:23;;;;;;;4.87;1.10;;;10.40;99.90;;;;;;5069183;28;20207;-77
2022/12/22 06:19:49;;;;;;;8.40;1.20;;;10.40;99.90;;;;;;5069355;28;20555;-77
2022/12/22 06:22:14;;;;;;;5.83;1.80;;;10.50;99.90;;;;;;5069257;28;20191;-77
2022/12/22 06:24:40;;;;;;;8.33;1.43;;;10.60;99.90;;;;;;5051802;28;20387;-77
2022/12/22 06:27:06;;;;;;;5.20;1.60;;;10.60;99.90;;;;;;5069202;28;20227;-76
2022/12/22 06:29:31;;;;;;;9.43;1.20;;;10.60;99.90;;;;;;5049716;28;20608;-77
2022/12/22 06:31:57;;;;;;;7.60;1.50;;;10.70;99.90;;;;;;5033281;28;20222;-78
2022/12/22 06:34:22;;;;;;;9.37;1.57;;;10.60;99.90;;;;;;5068459;28;20271;-77
2022/12/22 06:36:48;;;;;;;3.50;0.83;;;10.80;99.90;;;;;;5068779;28;20584;-78
2022/12/22 06:39:15;;;;;;;8.60;1.57;;;10.80;99.90;;;;;;5051635;28;20180;-78
2022/12/22 06:44:26;;;;;;;5.63;1.33;;;10.70;99.90;;;;;;5068781;28;20487;-77
2022/12/22 06:46:52;;;;;;;10.23;1.47;;;10.90;99.90;;;;;;5069152;28;20608;-78
2022/12/22 06:49:18;;;;;;;3.23;1.47;;;11.00;99.90;;;;;;5067695;28;20420;-77
2022/12/22 06:51:43;;;;;;;5.40;1.53;;;11.00;99.90;;;;;;5068479;28;20428;-77
2022/12/22 06:54:09;;;;;;;3.37;1.40;;;10.90;99.90;;;;;;5032903;28;20217;-77
2022/12/22 06:56:34;;;;;;;6.77;1.50;;;11.00;99.90;;;;;;5049336;28;20977;-76
2022/12/22 06:59:00;;;;;;;4.83;1.50;;;11.10;99.90;;;;;;5071197;28;20229;-77
2022/12/22 07:01:26;;;;;;;10.47;1.13;;;11.10;99.90;;;;;;5071786;28;20215;-77
2022/12/22 07:03:52;;;;;;;9.83;1.30;;;11.10;99.90;;;;;;5072495;28;20201;-78
2022/12/22 07:06:17;;;;;;;6.87;1.80;;;11.10;99.90;;;;;;5054546;28;20423;-77
2022/12/22 07:08:44;;;;;;;3.10;1.17;;;11.00;99.90;;;;;;5072694;28;20188;-77
2022/12/22 07:11:10;;;;;;;5.10;1.90;;;11.10;99.90;;;;;;5071105;28;20972;-77
2022/12/22 07:13:35;;;;;;;8.23;1.80;;;11.10;99.90;;;;;;5070773;28;20470;-78
2022/12/22 07:16:03;;;;;;;8.20;1.80;;;11.10;99.90;;;;;;5070947;28;20694;-77
2022/12/22 07:18:35;;;;;;;2.53;1.20;;;11.10;99.90;;;;;;5070843;28;20203;-77
2022/12/22 07:21:03;;;;;;;5.33;1.00;;;11.00;99.90;;;;;;5052735;28;20891;-77
2022/12/22 07:23:29;;;;;;;9.57;1.53;;;11.00;99.90;;;;;;5052601;28;20448;-76
2022/12/22 07:25:55;;;;;;;5.23;1.37;;;11.00;99.90;;;;;;5036137;28;20421;-76
2022/12/22 07:28:20;;;;;;;4.00;1.40;;;11.00;99.90;;;;;;5070696;28;20472;-77
2022/12/22 07:30:46;;;;;;;4.57;1.53;;;11.10;99.90;;;;;;5070507;28;20276;-77
2022/12/22 07:33:12;;;;;;;8.27;2.37;;;11.10;99.90;;;;;;5070768;28;20215;-77
2022/12/22 07:35:38;;;;;;;10.73;1.80;;;11.00;99.90;;;;;;5070347;28;20426;-77
2022/12/22 07:38:03;;;;;;;5.50;1.30;;;11.00;99.90;;;;;;5052428;28;20638;-77
2022/12/22 07:40:29;;;;;;;7.17;1.70;;;11.10;99.90;;;;;;5052349;28;20190;-76
2022/12/22 07:42:59;;;;;;;7.10;1.40;;;11.00;99.90;;;;;;5052734;28;20231;-76
2022/12/22 07:45:25;;;;;;;4.97;1.20;;;11.10;99.90;;;;;;5052336;28;20237;-77
2022/12/22 07:47:51;;;;;;;6.87;1.53;;;11.00;99.90;;;;;;5052281;28;20437;-77
2022/12/22 07:50:24;;;;;;;8.83;1.53;;;11.00;99.90;;;;;;5070401;28;20426;-76
2022/12/22 07:53:01;;;;;;;6.10;1.33;;;11.00;99.90;;;;;;5071264;28;20843;-76
2022/12/22 07:55:30;;;;;;;6.90;2.13;;;11.10;99.90;;;;;;5070934;28;20996;-77
2022/12/22 07:57:56;;;;;;;6.80;1.77;;;11.10;99.90;;;;;;5052213;28;20506;-77
2022/12/22 08:00:22;;;;;;;6.90;1.67;;;11.10;99.90;;;;;;5051656;28;20437;-77
2022/12/22 08:02:53;;;;;;;4.57;1.60;;;11.10;99.90;;;;;;5070243;28;20430;-77
2022/12/22 08:05:19;;;;;;;12.20;1.73;;;11.10;99.90;;;;;;5069881;28;20413;-77
2022/12/22 08:07:46;;;;;;;6.10;1.53;;;11.10;99.90;;;;;;5069726;28;20598;-76
2022/12/22 08:10:12;;;;;;;9.80;1.77;;;11.10;99.90;;;;;;5050926;28;20515;-77
2022/12/22 08:12:38;;;;;;;11.67;1.40;;;11.10;99.90;;;;;;5069539;28;20535;-77
2022/12/22 08:15:05;;;;;;;8.83;1.83;;;11.00;99.90;;;;;;5051362;28;20222;-77
2022/12/22 08:17:30;;;;;;;7.77;1.97;;;11.00;99.90;;;;;;5069484;28;20455;-77
2022/12/22 08:19:56;;;;;;;5.77;1.30;;;10.90;99.90;;;;;;5069609;28;20421;-76
2022/12/22 08:22:22;;;;;;;6.83;1.10;;;10.90;99.90;;;;;;5069530;28;20211;-77
2022/12/22 08:24:52;;;;;;;2.53;0.83;;;10.80;99.90;;;;;;5069733;28;20549;-77
2022/12/22 08:27:38;;;;;;;3.70;0.90;;;10.60;99.90;;;;;;5069849;28;20443;-76
2022/12/22 08:30:06;;;;;;;5.43;0.87;;;10.40;99.90;;;;;;5051035;28;20426;-77
2022/12/22 08:32:33;;;;;;;10.13;1.47;;;10.20;99.90;;;;;;5069515;28;20432;-77
2022/12/22 08:34:58;;;;;;;4.90;1.30;;;10.10;99.90;;;;;;5069192;28;20436;-77
2022/12/22 08:37:27;;;;;;;5.37;1.13;;;10.10;99.90;;;;;;5069417;28;20487;-77
2022/12/22 08:40:03;;;;;;;5.60;1.40;;;10.10;99.90;;;;;;5051251;28;20202;-76
2022/12/22 08:42:29;;;;;;;9.57;1.80;;;10.10;99.90;;;;;;5068822;28;20420;-77
2022/12/22 08:44:55;;;;;;;3.47;0.90;;;10.20;99.90;;;;;;5051360;28;20440;-77
2022/12/22 08:47:21;;;;;;;4.40;0.93;;;10.10;99.90;;;;;;5051148;28;20409;-77
2022/12/22 08:49:48;;;;;;;3.80;1.07;;;10.10;99.90;;;;;;5068646;28;20316;-76
2022/12/22 08:52:14;;;;;;;6.40;1.00;;;10.10;99.90;;;;;;5068854;28;20433;-75
2022/12/22 08:54:40;;;;;;;4.47;1.00;;;10.20;99.90;;;;;;5051080;28;20501;-78
2022/12/22 08:57:05;;;;;;;5.00;1.17;;;10.30;99.90;;;;;;5051553;28;20602;-77
2022/12/22 08:59:31;;;;;;;3.30;0.80;;;10.40;99.90;;;;;;5069546;28;20600;-77
2022/12/22 09:01:56;;;;;;;4.10;1.13;;;10.40;99.90;;;;;;5069425;28;20987;-77
2022/12/22 09:04:24;;;;;;;4.60;1.00;;;10.40;99.90;;;;;;5050598;28;20203;-77
2022/12/22 09:06:53;;;;;;;9.77;1.60;;;10.40;99.90;;;;;;5068893;28;20183;-77
2022/12/22 09:09:19;;;;;;;8.23;1.33;;;10.40;99.90;;;;;;5051061;28;20797;-77
2022/12/22 09:11:45;;;;;;;7.40;1.10;;;10.50;99.90;;;;;;5068827;28;20506;-77
2022/12/22 09:14:11;;;;;;;5.73;0.93;;;10.50;99.90;;;;;;5050287;28;20934;-76
2022/12/22 09:16:38;;;;;;;4.57;1.10;;;10.70;99.90;;;;;;5050278;28;20220;-77
2022/12/22 09:19:05;;;;;;;3.03;0.83;;;10.80;99.90;;;;;;5068659;28;20413;-77
2022/12/22 09:21:31;;;;;;;7.13;0.97;;;10.80;99.90;;;;;;5050597;28;20912;-77
2022/12/22 09:23:57;;;;;;;4.80;1.50;;;10.80;99.90;;;;;;5068183;28;20431;-77
2022/12/22 09:26:27;;;;;;;4.73;0.80;;;10.90;99.90;;;;;;5050227;28;20446;-77
2022/12/22 09:28:53;;;;;;;4.27;1.20;;;10.90;99.90;;;;;;5068315;28;20910;-76
2022/12/22 09:31:20;;;;;;;7.90;1.33;;;10.90;99.90;;;;;;5068602;28;21043;-76
2022/12/22 09:33:46;;;;;;;4.63;1.30;;;10.90;99.90;;;;;;5068139;28;20579;-77
2022/12/22 09:36:14;;;;;;;4.73;1.50;;;10.80;99.90;;;;;;5033805;28;20552;-77
2022/12/22 09:38:40;;;;;;;4.33;1.00;;;10.80;99.90;;;;;;5068376;28;20544;-77
2022/12/22 09:41:18;;;;;;;12.30;1.90;;;10.70;99.90;;;;;;5050699;28;20459;-78
2022/12/22 09:43:43;;;;;;;11.60;1.80;;;10.50;99.90;;;;;;5068630;28;20433;-78
2022/12/22 09:46:25;;;;;;;5.40;1.73;;;10.40;99.90;;;;;;5068986;28;20848;-77
2022/12/22 09:48:51;;;;;;;4.73;1.03;;;10.40;99.90;;;;;;5050398;28;20237;-77
2022/12/22 09:51:17;;;;;;;7.23;1.13;;;10.20;99.90;;;;;;5068785;28;20423;-77
2022/12/22 09:53:45;;;;;;;7.43;1.93;;;10.20;99.90;;;;;;5068372;28;20458;-77
2022/12/22 09:56:16;;;;;;;6.83;1.40;;;10.20;99.90;;;;;;5068431;28;20457;-77
2022/12/22 09:58:42;;;;;;;5.00;1.53;;;10.10;99.90;;;;;;5067774;28;20445;-77
2022/12/22 10:01:25;;;;;;;12.77;2.27;;;10.10;99.90;;;;;;5068427;28;20419;-77
2022/12/22 10:03:55;;;;;;;6.83;2.17;;;10.00;99.90;;;;;;5068456;28;20437;-78
2022/12/22 10:06:34;;;;;;;6.57;1.33;;;9.90;99.90;;;;;;5033761;28;20434;-76
2022/12/22 10:09:16;;;;;;;4.60;1.20;;;10.00;99.90;;;;;;5069059;28;20394;-77
2022/12/22 10:11:56;;;;;;;8.30;1.50;;;9.90;99.90;;;;;;5068556;28;20398;-77
2022/12/22 10:14:36;;;;;;;10.10;1.40;;;9.90;99.90;;;;;;5068366;28;20433;-77
2022/12/22 10:17:22;;;;;;;9.57;1.37;;;9.90;99.90;;;;;;5050039;28;20483;-77
2022/12/22 10:19:51;;;;;;;5.13;1.50;;;9.80;99.90;;;;;;5067789;28;20418;-77
2022/12/22 10:22:46;;;;;;;8.37;1.87;;;9.80;99.90;;;;;;5049955;28;20419;-77
2022/12/22 10:25:25;;;;;;;13.60;3.00;;;9.80;99.90;;;;;;5068159;28;20905;-77
2022/12/22 10:27:51;;;;;;;9.47;1.50;;;9.80;99.90;;;;;;5068051;28;20445;-76
2022/12/22 10:30:30;;;;;;;3.67;1.40;;;9.70;99.90;;;;;;5068198;28;20421;-77
2022/12/22 10:33:03;;;;;;;4.00;1.30;;;9.80;99.90;;;;;;5052591;28;20540;-76
2022/12/22 10:35:44;;;;;;;5.50;1.07;;;9.80;99.90;;;;;;5071882;28;20471;-77
2022/12/22 10:38:26;;;;;;;7.17;1.40;;;9.90;99.90;;;;;;5071862;28;20449;-77
2022/12/22 10:40:59;;;;;;;17.77;3.00;;;9.90;99.90;;;;;;5071878;28;20496;-77
2022/12/22 10:43:28;;;;;;;7.57;1.07;;;9.90;99.90;;;;;;5071799;28;20483;-77
2022/12/22 10:45:55;;;;;;;6.00;1.63;;;9.90;99.90;;;;;;5071410;28;20462;-77
2022/12/22 10:48:32;;;;;;;7.63;1.80;;;10.00;99.90;;;;;;5071847;28;20419;-77
2022/12/22 10:50:59;;;;;;;8.97;2.13;;;10.00;99.90;;;;;;5053196;28;20413;-77
2022/12/22 10:53:54;;;;;;;9.10;2.07;;;10.00;99.90;;;;;;5053269;28;21281;-76
2022/12/22 10:56:27;;;;;;;8.07;1.63;;;10.00;99.90;;;;;;5060895;28;20480;-76
2022/12/22 10:58:54;;;;;;;8.47;1.60;;;10.00;99.90;;;;;;5053275;28;20430;-77
2022/12/22 11:01:25;;;;;;;6.00;1.57;;;10.10;99.90;;;;;;5071447;28;20882;-77
2022/12/22 11:03:51;;;;;;;8.53;1.87;;;10.00;99.90;;;;;;5071027;28;20529;-77
2022/12/22 11:06:18;;;;;;;8.57;1.70;;;10.00;99.90;;;;;;5071237;28;20888;-77
2022/12/22 11:08:44;;;;;;;5.80;1.43;;;10.10;99.90;;;;;;5071047;28;20214;-77
2022/12/22 11:11:21;;;;;;;3.83;1.80;;;10.10;99.90;;;;;;5071304;28;20992;-77
2022/12/22 11:13:58;;;;;;;6.10;2.00;;;10.10;99.90;;;;;;5070668;28;20218;-77
2022/12/22 11:16:38;;;;;;;4.30;1.30;;;10.10;99.90;;;;;;5070594;28;20480;-76
2022/12/22 11:19:22;;;;;;;5.70;1.53;;;10.20;99.90;;;;;;5052985;28;20509;-76
2022/12/22 11:21:59;;;;;;;6.67;1.93;;;10.20;99.90;;;;;;5053464;28;20513;-76
2022/12/22 11:24:47;;;;;;;9.70;1.90;;;10.20;99.90;;;;;;5071168;28;20433;-76
2022/12/22 11:27:28;;;;;;;5.17;2.10;;;10.20;99.90;;;;;;5071314;28;20435;-76
2022/12/22 11:30:17;;;;;;;5.80;1.10;;;10.30;99.90;;;;;;5071486;28;20417;-76
2022/12/22 11:32:55;;;;;;;5.40;1.27;;;10.40;99.90;;;;;;5071839;28;20484;-76
2022/12/22 11:35:55;;;;;;;8.70;1.23;;;10.40;99.90;;;;;;5071993;28;20978;-76
2022/12/22 11:38:26;;;;;;;4.67;1.20;;;10.50;99.90;;;;;;5053293;28;20433;-76
2022/12/22 11:41:03;;;;;;;4.20;1.37;;;10.50;99.90;;;;;;5071827;28;20437;-76
2022/12/22 11:43:59;;;;;;;8.37;1.57;;;10.50;99.90;;;;;;5070812;28;20502;-76
2022/12/22 11:46:33;;;;;;;4.30;1.03;;;10.60;99.90;;;;;;5071302;28;20520;-77
2022/12/22 11:49:27;;;;;;;6.10;1.60;;;10.60;99.90;;;;;;5070800;28;20925;-77
2022/12/22 11:52:05;;;;;;;6.30;1.70;;;10.60;99.90;;;;;;5070558;28;20410;-77
2022/12/22 11:54:46;;;;;;;7.77;1.37;;;10.70;99.90;;;;;;5070297;28;20432;-77
2022/12/22 11:57:35;;;;;;;4.70;1.03;;;10.70;99.90;;;;;;5070332;28;20462;-76
2022/12/22 12:00:14;;;;;;;5.93;1.27;;;10.70;99.90;;;;;;5070781;28;20420;-76
2022/12/22 12:02:42;;;;;;;5.33;1.40;;;10.80;99.90;;;;;;5070704;28;20451;-77
2022/12/22 12:05:27;;;;;;;4.70;1.83;;;10.80;99.90;;;;;;5070253;28;20953;-77
2022/12/22 12:08:05;;;;;;;8.67;1.93;;;10.80;99.90;;;;;;5070212;28;20468;-76
2022/12/22 12:10:33;;;;;;;4.07;1.33;;;10.90;99.90;;;;;;5069844;28;20915;-76
2022/12/22 12:13:05;;;;;;;6.90;1.67;;;10.90;99.90;;;;;;5069432;28;20947;-76
2022/12/22 12:15:53;;;;;;;5.17;1.37;;;11.00;99.90;;;;;;5070275;28;20409;-76
2022/12/22 12:18:37;;;;;;;8.20;1.83;;;11.00;99.90;;;;;;5053605;28;20435;-75
2022/12/22 12:21:41;;;;;;;4.63;0.93;;;11.10;99.90;;;;;;5070507;28;20455;-77
2022/12/22 12:24:20;;;;;;;2.80;1.10;;;11.10;99.90;;;;;;5069487;28;20439;-77
2022/12/22 12:27:12;;;;;;;7.10;1.50;;;11.10;99.90;;;;;;5069030;28;20938;-76
2022/12/22 12:30:01;;;;;;;8.30;1.23;;;11.20;99.90;;;;;;5069268;28;20500;-77
2022/12/22 12:32:34;;;;;;;4.97;1.37;;;11.20;99.90;;;;;;5069139;28;20787;-77
2022/12/22 12:35:23;;;;;;;6.30;1.37;;;11.20;99.90;;;;;;5068917;28;20415;-77
2022/12/22 12:37:56;;;;;;;7.10;1.20;;;11.20;99.90;;;;;;5068936;28;20803;-77
2022/12/22 12:40:37;;;;;;;7.70;1.47;;;11.20;99.90;;;;;;5068976;28;20742;-76
2022/12/22 12:43:03;;;;;;;5.00;1.03;;;11.30;99.90;;;;;;5069334;28;20448;-76
2022/12/22 12:45:41;;;;;;;8.10;1.23;;;11.40;99.90;;;;;;5069489;28;20421;-75
2022/12/22 12:48:19;;;;;;;5.00;1.07;;;11.40;99.90;;;;;;5068392;28;20873;-76
2022/12/22 12:50:48;;;;;;;9.13;1.40;;;11.40;99.90;;;;;;5068444;28;20413;-77
2022/12/22 12:53:19;;;;;;;3.23;1.47;;;11.40;99.90;;;;;;5068716;28;20449;-77
2022/12/22 12:55:51;;;;;;;7.13;1.50;;;11.30;99.90;;;;;;5067792;28;20472;-77
2022/12/22 12:58:52;;;;;;;4.20;1.10;;;11.30;99.90;;;;;;5068234;28;20469;-76
2022/12/22 13:01:18;;;;;;;6.50;1.50;;;11.20;99.90;;;;;;4966707;28;20792;-76
2022/12/22 13:03:45;;;;;;;5.17;1.37;;;11.20;99.90;;;;;;5047058;28;20476;-76
2022/12/22 13:06:43;;;;;;;5.17;1.13;;;11.10;99.90;;;;;;5068308;28;20176;-76
2022/12/22 13:09:17;;;;;;;5.70;1.40;;;11.00;99.90;;;;;;5068286;28;20416;-76
2022/12/22 13:11:43;;;;;;;7.50;1.30;;;10.90;99.90;;;;;;5050433;28;20530;-77
2022/12/22 13:14:09;;;;;;;9.90;1.67;;;10.90;99.90;;;;;;5049788;28;20512;-77
2022/12/22 13:16:38;;;;;;;6.63;1.57;;;10.80;99.90;;;;;;5033543;28;20833;-77
2022/12/22 13:19:13;;;;;;;13.47;1.87;;;10.80;99.90;;;;;;5068375;28;20180;-77
2022/12/22 13:21:43;;;;;;;6.23;1.83;;;10.70;99.90;;;;;;5068525;28;20425;-76
2022/12/22 13:24:14;;;;;;;7.87;1.57;;;10.70;99.90;;;;;;5050759;28;20504;-76
2022/12/22 13:26:42;;;;;;;10.23;2.00;;;10.70;99.90;;;;;;5068255;28;20476;-76
2022/12/22 13:29:17;;;;;;;13.37;2.20;;;10.70;99.90;;;;;;5068114;28;20422;-76
2022/12/22 13:31:49;;;;;;;7.50;1.80;;;10.70;99.90;;;;;;5067801;28;20410;-76
2022/12/22 13:34:21;;;;;;;17.33;1.90;;;10.80;99.90;;;;;;5049602;28;20456;-75
2022/12/22 13:36:49;;;;;;;4.83;1.23;;;10.80;99.90;;;;;;5067835;28;20541;-76
2022/12/22 13:39:15;;;;;;;8.83;1.20;;;10.90;99.90;;;;;;5068364;28;20790;-76
2022/12/22 13:41:44;;;;;;;11.03;2.07;;;10.90;99.90;;;;;;5068268;28;20509;-76
2022/12/22 13:44:27;;;;;;;10.67;1.73;;;10.90;99.90;;;;;;5068153;28;20438;-77
2022/12/22 13:46:53;;;;;;;8.70;1.17;;;11.00;99.90;;;;;;5068044;28;20927;-77
2022/12/22 13:49:20;;;;;;;10.17;1.90;;;11.00;99.90;;;;;;5067732;28;20430;-77
2022/12/22 13:51:47;;;;;;;11.40;1.90;;;11.00;99.90;;;;;;5068171;28;20421;-76
2022/12/22 13:54:26;;;;;;;6.53;1.60;;;11.00;99.90;;;;;;5067346;28;20474;-76
2022/12/22 13:56:55;;;;;;;8.50;2.40;;;10.90;99.90;;;;;;5049234;28;21107;-76
2022/12/22 13:59:23;;;;;;;7.10;1.70;;;10.90;99.90;;;;;;5067678;28;20923;-76
2022/12/22 14:01:51;;;;;;;5.97;1.70;;;10.90;99.90;;;;;;5049496;28;20837;-76
2022/12/22 14:04:16;;;;;;;11.73;2.30;;;10.90;99.90;;;;;;5068097;28;20467;-76
2022/12/22 14:06:42;;;;;;;10.70;2.03;;;10.90;99.90;;;;;;5049305;28;20835;-77
2022/12/22 14:09:17;;;;;;;9.63;2.10;;;10.90;99.90;;;;;;5050196;28;20197;-76
2022/12/22 14:11:46;;;;;;;18.83;2.87;;;10.80;99.90;;;;;;5068343;28;20297;-77
2022/12/22 14:14:24;;;;;;;13.77;1.70;;;10.90;99.90;;;;;;5033425;28;20484;-76
2022/12/22 14:16:52;;;;;;;8.53;2.10;;;10.90;99.90;;;;;;5050509;28;20582;-76
2022/12/22 14:19:20;;;;;;;8.90;1.97;;;10.90;99.90;;;;;;5049462;28;20457;-76
2022/12/22 14:21:49;;;;;;;16.10;2.30;;;10.90;99.90;;;;;;5068116;28;20937;-77
2022/12/22 14:24:24;;;;;;;10.93;2.23;;;10.90;99.90;;;;;;5049657;28;20468;-77
2022/12/22 14:26:51;;;;;;;9.90;2.43;;;10.80;99.90;;;;;;5067857;28;20444;-76
2022/12/22 14:29:21;;;;;;;8.10;1.73;;;10.80;99.90;;;;;;5067591;28;20414;-76
2022/12/22 14:31:52;;;;;;;10.10;2.47;;;10.80;99.90;;;;;;5069092;28;20462;-76
2022/12/22 14:34:30;;;;;;;12.60;2.27;;;10.80;99.90;;;;;;5049802;28;20543;-76
2022/12/22 14:36:57;;;;;;;10.73;1.80;;;10.80;99.90;;;;;;5067896;28;20461;-76
2022/12/22 14:39:31;;;;;;;6.90;2.00;;;10.80;99.90;;;;;;5067553;28;20417;-77
2022/12/22 14:42:02;;;;;;;6.00;1.90;;;10.80;99.90;;;;;;5067549;28;20490;-76
2022/12/22 14:44:31;;;;;;;12.23;2.00;;;10.80;99.90;;;;;;5049321;28;20449;-77
2022/12/22 14:47:05;;;;;;;8.63;1.70;;;10.80;99.90;;;;;;5067455;28;20421;-76
2022/12/22 14:49:33;;;;;;;11.53;2.40;;;10.90;99.90;;;;;;5048839;28;20443;-76
2022/12/22 14:52:06;;;;;;;7.50;1.57;;;10.80;99.90;;;;;;5067728;28;20436;-77
2022/12/22 14:54:32;;;;;;;8.70;1.70;;;10.80;99.90;;;;;;5067674;28;20435;-76
2022/12/22 14:57:26;;;;;;;8.53;1.90;;;10.70;99.90;;;;;;5049073;28;20542;-77
2022/12/22 15:00:21;;;;;;;15.53;2.33;;;10.70;99.90;;;;;;5067261;28;20403;-75
2022/12/22 15:02:56;;;;;;;5.40;1.60;;;10.60;99.90;;;;;;5067728;28;20535;-76
2022/12/22 15:05:27;;;;;;;14.57;1.73;;;10.60;99.90;;;;;;5049003;28;20403;-76
2022/12/22 15:07:56;;;;;;;14.80;2.70;;;10.50;99.90;;;;;;5067386;28;20806;-77
2022/12/22 15:10:23;;;;;;;8.70;2.10;;;10.50;99.90;;;;;;5048921;28;20442;-77
2022/12/22 15:12:51;;;;;;;6.80;2.40;;;10.40;99.90;;;;;;5067382;28;20505;-77
2022/12/22 15:15:20;;;;;;;10.10;1.93;;;10.40;99.90;;;;;;5067143;28;20427;-76
2022/12/22 15:17:52;;;;;;;9.17;2.13;;;10.40;99.90;;;;;;5049654;28;20898;-77
2022/12/22 15:20:24;;;;;;;7.40;2.60;;;10.40;99.90;;;;;;5070616;28;20421;-77
2022/12/22 15:22:50;;;;;;;6.87;2.10;;;10.40;99.90;;;;;;5070680;28;20881;-77
2022/12/22 15:25:22;;;;;;;8.40;2.43;;;10.30;99.90;;;;;;5052468;28;20420;-76
2022/12/22 15:27:49;;;;;;;14.17;2.60;;;10.30;99.90;;;;;;5070585;28;20459;-77
2022/12/22 15:30:17;;;;;;;14.23;2.60;;;10.30;99.90;;;;;;5070429;28;20418;-77
2022/12/22 15:32:43;;;;;;;10.00;2.43;;;10.20;99.90;;;;;;5052384;28;20992;-77
2022/12/22 15:35:24;;;;;;;14.10;2.37;;;10.20;99.90;;;;;;5070582;28;20421;-77
2022/12/22 15:37:50;;;;;;;11.53;2.20;;;10.20;99.90;;;;;;5053519;28;20461;-77
2022/12/22 15:40:19;;;;;;;9.63;1.80;;;10.20;99.90;;;;;;5070493;28;20887;-77
2022/12/22 15:42:45;;;;;;;13.20;2.07;;;10.10;99.90;;;;;;5052335;28;21137;-77
2022/12/22 15:45:12;;;;;;;13.97;2.47;;;10.10;99.90;;;;;;5070333;28;20438;-77
2022/12/22 15:47:38;;;;;;;5.73;1.40;;;10.10;99.90;;;;;;5070588;28;20421;-77
2022/12/22 15:50:04;;;;;;;9.90;2.13;;;10.10;99.90;;;;;;5052359;28;20422;-77
2022/12/22 15:52:30;;;;;;;10.07;2.30;;;10.20;99.90;;;;;;5034902;28;20541;-77
2022/12/22 15:54:57;;;;;;;13.17;2.50;;;10.00;99.90;;;;;;5053378;28;20901;-78
2022/12/22 15:57:22;;;;;;;12.67;2.47;;;10.20;99.90;;;;;;5071148;28;20488;-77
2022/12/22 15:59:48;;;;;;;11.70;2.90;;;10.20;99.90;;;;;;5070176;28;20765;-78
2022/12/22 16:02:16;;;;;;;7.97;1.90;;;10.30;99.90;;;;;;5070011;28;20187;-79
2022/12/22 16:04:42;;;;;;;11.00;2.60;;;10.30;99.90;;;;;;5051940;28;20193;-77
2022/12/22 16:07:11;;;;;;;11.57;3.33;;;10.20;99.90;;;;;;5069878;28;20409;-78
2022/12/22 16:09:41;;;;;;;16.37;3.83;;;10.20;99.90;;;;;;5069590;28;20322;-77
2022/12/22 16:12:17;;;;;;;15.60;3.57;;;10.20;99.90;;;;;;5069883;28;20901;-77
2022/12/22 16:14:47;;;;;;;12.60;2.40;;;10.30;99.90;;;;;;5069794;28;20527;-77
2022/12/22 16:17:18;;;;;;;11.00;3.37;;;10.20;99.90;;;;;;5070012;28;20490;-77
2022/12/22 16:19:44;;;;;;;7.33;2.40;;;10.20;99.90;;;;;;5069560;28;20413;-77
2022/12/22 16:22:16;;;;;;;8.60;2.53;;;10.20;99.90;;;;;;5070092;28;20418;-77
2022/12/22 16:24:43;;;;;;;21.13;3.10;;;10.20;99.90;;;;;;5051590;28;20190;-78
2022/12/22 16:27:11;;;;;;;18.13;2.60;;;10.20;99.90;;;;;;5069805;28;20522;-77
2022/12/22 16:29:38;;;;;;;12.40;2.80;;;10.20;99.90;;;;;;5050275;28;20429;-77
2022/12/22 16:32:14;;;;;;;15.23;2.50;;;10.20;99.90;;;;;;5051630;28;20416;-77
2022/12/22 16:34:40;;;;;;;9.33;2.30;;;10.20;99.90;;;;;;5069520;28;20421;-77
2022/12/22 16:37:05;;;;;;;17.67;2.87;;;10.20;99.90;;;;;;5051860;28;20460;-77